Flight Track Log - Related Links

Times and Time Zones

All times are in EDT time to prevent confusion due to time zone crossing. See the N700QA flight status page for this flight to view local times or setup timezone preferences in your user account.

Time Position Orientation Groundspeed Altitude Reporting Facility
EDT Latitude Longitude Course Direction KTS MPH feet Rate Location/Type
Tue 10:51:00 PM 40.5938 -114.6344 187° South  Level FlightAware Approximate
Tue 10:52:00 PM 40.4964 -114.6504 185° South  Level FlightAware Approximate
Tue 10:53:00 PM 40.3988 -114.6627 185° South  Level FlightAware Approximate
Tue 10:54:00 PM 40.3017 -114.6797 189° South  Level FlightAware Approximate
Tue 10:55:00 PM 40.2047 -114.6991 189° South  Level FlightAware Approximate
Tue 10:55:47 PM 40.6925 -114.1872 274° West 243 280 8,900  Level Salt Lake Center
Tue 10:56:00 PM 40.1073 -114.7143 187° South  Level FlightAware Approximate
Tue 10:56:48 PM 40.6356 -114.2211 204° Southwest 272 313 10,900  Level Salt Lake Center
Tue 10:57:00 PM 40.0100 -114.7292 187° South  Level FlightAware Approximate
Tue 10:57:50 PM 40.5672 -114.1978 165° South 267 307 12,400  Level Salt Lake Center
Tue 10:58:00 PM 39.9121 -114.7340 186° South  Level FlightAware Approximate
Tue 10:58:52 PM 40.4933 -114.1739 166° South 269 310 14,200  Level Salt Lake Center
Tue 10:59:00 PM 39.8146 -114.7479 186° South  Level FlightAware Approximate
Tue 10:59:53 PM 40.4147 -114.1478 166° South 275 316 15,900  Level Salt Lake Center
Tue 11:00:00 PM 39.7194 -114.7742 187° South  Level FlightAware Approximate
Tue 11:00:55 PM 40.3361 -114.1233 167° South 283 326 17,500  Level Salt Lake Center
Tue 11:01:56 PM 40.2333 -114.0914 167° South 304 350 19,400 1,610 Climbing Salt Lake Center
Tue 11:02:58 PM 40.1436 -114.0633 167° South 320 368 20,800 1,415 Climbing Salt Lake Center
Tue 11:03:59 PM 40.0575 -114.0344 166° South 323 372 22,300 1,171 Climbing Salt Lake Center
Tue 11:05:01 PM 39.9675 -114.0075 167° South 328 377 23,200 976 Climbing Salt Lake Center
Tue 11:06:02 PM 39.8783 -113.9794 166° South 331 381 24,300 1,024 Climbing Salt Lake Center
Tue 11:07:04 PM 39.7861 -113.9503 166° South 338 389 25,300 1,073 Climbing Salt Lake Center
Tue 11:08:05 PM 39.6794 -113.9183 167° South 342 394 26,500 1,033 Climbing Salt Lake Center
Tue 11:09:06 PM 39.5869 -113.8894 166° South 342 394 27,400 780 Climbing Salt Lake Center
Tue 11:10:08 PM 39.4931 -113.8600 166° South 348 400 28,100 732 Climbing Salt Lake Center
Tue 11:11:09 PM 39.3972 -113.8311 167° South 354 407 28,900 780 Climbing Salt Lake Center
Tue 11:12:11 PM 39.3011 -113.8022 167° South 356 410 29,700 683 Climbing Salt Lake Center
Tue 11:13:12 PM 39.2044 -113.7736 167° South 356 410 30,300 590 Climbing Salt Lake Center
Tue 11:14:13 PM 39.1069 -113.7425 166° South 361 415 30,900 341 Climbing Salt Lake Center
Tue 11:15:15 PM 39.0081 -113.7103 166° South 366 421 31,000 98 Climbing Salt Lake Center
Tue 11:16:16 PM 38.9039 -113.6794 167° South 380 437 31,100 49 Climbing Salt Lake Center
Tue 11:17:17 PM 38.7747 -113.6400 167° South 395 455 31,100 -49 Level Salt Lake Center
Tue 11:18:19 PM 38.6661 -113.6089 167° South 402 463 31,000 -49 Descending Salt Lake Center
Tue 11:19:20 PM 38.5561 -113.5761 167° South 407 468 31,000 49 Level Salt Lake Center
Tue 11:20:21 PM 38.4489 -113.5447 167° South 400 460 31,100 49 Climbing Salt Lake Center
Tue 11:21:22 PM 38.3411 -113.5122 167° South 399 459 31,100 -146 Level Salt Lake Center
Tue 11:22:24 PM 38.2342 -113.4811 167° South 397 457 30,800 -488 Descending Salt Lake Center
Tue 11:23:25 PM 38.1231 -113.4494 167° South 406 467 30,100 -393 Descending Salt Lake Center
Tue 11:24:26 PM 38.0125 -113.4161 167° South 409 471 30,000 -49 Descending Salt Lake Center
Tue 11:25:27 PM 37.9039 -113.3947 171° South 402 463 30,000  Level Salt Lake Center
Tue 11:26:29 PM 37.7839 -113.4472 199° South 387 445 30,000  Level Salt Lake Center
Tue 11:27:30 PM 37.6869 -113.4981 203° Southwest 383 441 30,000  Level Salt Lake Center
Tue 11:28:20 PM 37.6103 -113.5381 202° Southwest 379 436 30,000 -268 Level Los Angeles Center
Tue 11:29:22 PM 37.5136 -113.5886 203° Southwest 379 436 29,500 -919 Descending Los Angeles Center
Tue 11:30:24 PM 37.4136 -113.6392 202° Southwest 387 445 28,100 -1,317 Descending Los Angeles Center
Tue 11:31:25 PM 37.3136 -113.6922 203° Southwest 391 450 26,800 -1,415 Descending Los Angeles Center
Tue 11:32:27 PM 37.1947 -113.7564 203° Southwest 391 450 25,200 -1,694 Descending Los Angeles Center
Tue 11:33:29 PM 37.0953 -113.8092 203° Southwest 389 448 23,300 -1,839 Descending Los Angeles Center
Tue 11:34:31 PM 37.0061 -113.8906 216° Southwest 382 440 21,400 -1,854 Descending Los Angeles Center
Tue 11:35:32 PM 36.9239 -113.9750 219° Southwest 381 438 19,500 -1,805 Descending Los Angeles Center
Tue 11:36:34 PM 36.8367 -114.0547 216° Southwest 386 444 17,700 -1,694 Descending Los Angeles Center
Tue 11:37:36 PM 36.7603 -114.1294 218° Southwest 372 428 16,000 -1,597 Descending Los Angeles Center
Tue 11:38:38 PM 36.6628 -114.2211 217° Southwest 366 421 14,400 -1,268 Descending Los Angeles Center
Tue 11:39:39 PM 36.5936 -114.2858 217° Southwest 364 419 13,400 -1,091 Descending Los Angeles Center
Tue 11:40:17 PM 36.5294 -114.3506 219° Southwest 364 419 12,600 -977 Descending Los Angeles Center
Tue 11:41:05 PM 36.4683 -114.4064 216° Southwest 358 412 12,000 -419 Descending Los Angeles Center
Tue 11:41:43 PM 36.4214 -114.4486 216° Southwest 348 400 12,000 -60 Level Los Angeles Center
Tue 11:42:45 PM 36.3664 -114.5300 230° Southwest 314 361 11,900 -537 Descending Los Angeles Center
Tue 11:43:46 PM 36.3211 -114.6186 238° Southwest 306 352 10,900 -1,024 Descending Los Angeles Center
Tue 11:44:48 PM 36.2736 -114.7017 235° Southwest 298 343 9,800 -1,210 Descending Los Angeles Center
Tue 11:45:50 PM 36.2275 -114.7808 234° Southwest 288 331 8,400 -1,355 Descending Los Angeles Center
Tue 11:46:52 PM 36.1872 -114.8542 236° Southwest 266 306 7,000 -774 Descending Los Angeles Center
Tue 11:47:54 PM 36.1539 -114.9236 239° Southwest 243 280 6,800 -683 Descending Los Angeles Center
Tue 11:48:55 PM 36.1517 -114.9931 268° West 208 239 5,600 -1,268 Descending Los Angeles Center
Tue 11:49:57 PM 36.1494 -115.0706 268° West 192 221 4,200 -1,113 Descending Los Angeles Center
Tue 11:50:59 PM 36.1397 -115.1264 258° West 180 207 3,300 -976 Descending Los Angeles Center
Tue 11:52:00 PM 36.1097 -115.1517 214° Southwest 148 170 2,200 -1,082 Descending Los Angeles Center
Tue 11:53:00 PM 36.0801 -115.1523 219° Southwest  Level Estimated
Wed 12:00:00 AM 36.0801 -115.1523 219° Southwest  Level Estimated

Login

Don't have an account? Register now (free) for customized features, flight alerts, and more!